Terminal Aerodrome Forecast
Issued by NWS Charleston, WV

Current Version | Previous Version | Graphics & Text | Print | Product List | Glossary On
Versions: 1 2 3 4 5 6 7 8 9 10 11 12 13 14 15 16 17 18 19 20 21 22 23 24 25 26
000
FTUS41 KRLX 210200 AAA
TAFPKB
TAF AMD
KPKB 210224Z 2102/2124 00000KT P6SM SCT200
     FM210400 00000KT 6SM BR SCT080
     FM210500 00000KT 4SM BR BKN045
     FM210700 00000KT 1SM BR BKN001
     FM210800 00000KT 1/4SM FG VV001
     FM211300 VRB03KT 3SM -SHRA BKN025
     FM211500 21004KT 5SM BR VCTS BKN060CB
     FM211700 22006KT P6SM VCTS BKN050CB
     FM211800 23007KT P6SM SHRA VCTS BKN045CB
     FM212000 23005KT P6SM TSRA BKN040CB=

USA.gov is the U.S. government's official web portal to all federal, state and local government web resources and services.